Terminal Aerodrome Forecast
Issued by NWS Medford, OR

Home | Current Version | Previous Version | Text Only | Print | Product List | Glossary On
Versions: 1 2 3 4 5 6 7 8 9 10 11 12 13
000
FTUS46 KMFR 231700
TAFMFR
TAF
KMFR 231740Z 2318/2418 VRB03KT P6SM BKN080 BKN150
     FM232200 29012KT P6SM SCT070 OVC090
     FM240300 30005KT P6SM VCSH BKN060 OVC080
     FM241500 VRB04KT P6SM -RA SCT035 OVC060=

USA.gov is the U.S. government's official web portal to all federal, state and local government web resources and services.